createdAt,value
2017-09-06T00:00:26.275Z,4.87
2017-09-06T00:02:53.823Z,4.40
2017-09-06T00:05:21.343Z,4.67
2017-09-06T00:07:48.895Z,4.87
2017-09-06T00:10:16.414Z,5.00
2017-09-06T00:12:43.962Z,4.70
2017-09-06T00:15:11.482Z,5.00
2017-09-06T00:17:39.038Z,5.23
2017-09-06T00:20:06.563Z,5.00
2017-09-06T00:22:34.109Z,5.30
2017-09-06T00:25:01.634Z,5.03
2017-09-06T00:27:29.201Z,6.00
2017-09-06T00:29:56.727Z,5.60
2017-09-06T00:32:24.252Z,5.50
2017-09-06T00:34:51.807Z,5.73
2017-09-06T00:37:19.327Z,5.50
2017-09-06T00:39:46.870Z,5.67
2017-09-06T00:42:14.394Z,5.17
2017-09-06T00:44:41.942Z,5.80
2017-09-06T00:47:09.463Z,5.20
2017-09-06T00:49:37.006Z,5.57
2017-09-06T00:52:04.537Z,5.27
2017-09-06T00:54:32.095Z,5.20
2017-09-06T00:56:59.624Z,6.03
2017-09-06T00:59:27.166Z,4.70
2017-09-06T01:04:49.116Z,5.20
2017-09-06T01:07:16.647Z,5.03
2017-09-06T01:09:44.210Z,6.03
2017-09-06T01:12:11.731Z,4.60
2017-09-06T01:14:39.279Z,5.20
2017-09-06T01:17:06.799Z,5.00
2017-09-06T01:19:34.350Z,4.77
2017-09-06T01:22:01.874Z,5.07
2017-09-06T01:24:29.416Z,4.70
2017-09-06T01:26:56.947Z,4.77
2017-09-06T01:29:24.498Z,5.50
2017-09-06T01:31:52.027Z,4.50
2017-09-06T01:34:19.554Z,4.10
2017-09-06T01:36:47.110Z,4.50
2017-09-06T01:39:14.627Z,4.33
2017-09-06T01:41:42.175Z,3.83
2017-09-06T01:44:09.698Z,4.47
2017-09-06T01:46:37.238Z,4.10
2017-09-06T01:49:04.767Z,3.77
2017-09-06T01:51:32.315Z,3.83
2017-09-06T01:53:59.835Z,3.73
2017-09-06T01:56:27.374Z,4.60
2017-09-06T01:58:54.898Z,4.33
2017-09-06T02:01:22.448Z,4.00
2017-09-06T02:03:49.980Z,3.60
2017-09-06T02:06:17.524Z,3.60
2017-09-06T02:08:45.051Z,3.90
2017-09-06T02:11:12.599Z,3.17
2017-09-06T02:13:40.127Z,3.27
2017-09-06T02:16:07.677Z,3.10
2017-09-06T02:18:35.205Z,3.20
2017-09-06T02:21:02.750Z,3.30
2017-09-06T02:23:30.275Z,2.77
2017-09-06T02:25:57.826Z,3.07
2017-09-06T02:28:25.347Z,2.80
2017-09-06T02:30:52.876Z,2.87
2017-09-06T02:33:20.413Z,3.10
2017-09-06T02:35:47.935Z,3.00
2017-09-06T02:38:15.486Z,2.53
2017-09-06T02:40:43.006Z,2.90
2017-09-06T02:43:10.551Z,2.70
2017-09-06T02:45:38.078Z,2.53
2017-09-06T02:48:05.624Z,2.70
2017-09-06T02:50:33.160Z,2.73
2017-09-06T02:53:00.712Z,3.30
2017-09-06T02:55:28.238Z,3.13
2017-09-06T02:57:55.790Z,2.57
2017-09-06T03:00:23.311Z,2.50
2017-09-06T03:02:50.860Z,2.57
2017-09-06T03:05:18.385Z,2.90
2017-09-06T03:07:45.926Z,2.97
2017-09-06T03:10:13.451Z,2.63
2017-09-06T03:12:40.994Z,2.50
2017-09-06T03:15:08.519Z,2.80
2017-09-06T03:17:36.074Z,3.10
2017-09-06T03:20:03.599Z,2.80
2017-09-06T03:22:31.149Z,2.70
2017-09-06T03:24:58.670Z,3.10
2017-09-06T03:27:26.245Z,3.27
2017-09-06T03:29:53.775Z,2.40
2017-09-06T03:32:21.293Z,2.80
2017-09-06T03:34:48.834Z,2.43
2017-09-06T03:37:16.358Z,2.90
2017-09-06T03:39:43.906Z,2.77
2017-09-06T03:42:11.423Z,2.30
2017-09-06T03:44:38.975Z,3.43
2017-09-06T03:47:06.500Z,2.60
2017-09-06T03:49:34.050Z,3.20
2017-09-06T03:52:01.566Z,2.37
2017-09-06T03:54:29.111Z,3.17
2017-09-06T03:56:56.631Z,2.90
2017-09-06T03:59:24.187Z,2.87
2017-09-06T04:01:51.715Z,2.80
2017-09-06T04:04:19.257Z,2.50
2017-09-06T04:06:46.774Z,2.50
2017-09-06T04:09:14.325Z,3.03
2017-09-06T04:11:41.847Z,2.70
2017-09-06T04:14:09.397Z,3.27
2017-09-06T04:16:36.918Z,3.07
2017-09-06T04:19:04.486Z,3.40
2017-09-06T04:21:32.016Z,2.93
2017-09-06T04:23:59.538Z,2.77
2017-09-06T04:26:27.088Z,2.70
2017-09-06T04:28:54.611Z,3.43
2017-09-06T04:31:22.162Z,3.33
2017-09-06T04:33:49.687Z,3.47
2017-09-06T04:36:17.230Z,3.27
2017-09-06T04:38:44.763Z,3.77
2017-09-06T04:41:12.311Z,2.80
2017-09-06T04:43:39.870Z,3.27
2017-09-06T04:46:07.486Z,3.13
2017-09-06T04:48:35.028Z,2.77
2017-09-06T04:51:02.573Z,3.20
2017-09-06T04:53:30.098Z,3.20
2017-09-06T04:55:57.650Z,3.47
2017-09-06T04:58:25.174Z,3.30
2017-09-06T05:00:52.719Z,3.40
2017-09-06T05:03:20.243Z,3.17
2017-09-06T05:05:47.791Z,3.00
2017-09-06T05:08:15.470Z,3.20
2017-09-06T05:10:43.024Z,3.40
2017-09-06T05:13:10.553Z,3.40
2017-09-06T05:15:38.123Z,3.80
2017-09-06T05:18:05.785Z,3.57
2017-09-06T05:20:33.354Z,3.90
2017-09-06T05:23:00.908Z,3.97
2017-09-06T05:25:28.435Z,3.80
2017-09-06T05:27:55.988Z,3.07
2017-09-06T05:30:23.518Z,3.77
2017-09-06T05:32:51.062Z,4.00
2017-09-06T05:35:18.591Z,3.53
2017-09-06T05:37:46.146Z,3.90
2017-09-06T05:40:13.666Z,3.87
2017-09-06T05:42:41.206Z,4.77
2017-09-06T05:45:08.734Z,5.20
2017-09-06T05:47:36.280Z,6.10
2017-09-06T05:50:03.803Z,4.97
2017-09-06T05:52:31.354Z,4.80
2017-09-06T05:54:58.886Z,5.80
2017-09-06T05:57:26.439Z,5.00
2017-09-06T05:59:53.966Z,5.20
2017-09-06T06:02:21.509Z,5.17
2017-09-06T06:04:49.030Z,4.90
2017-09-06T06:07:16.579Z,4.27
2017-09-06T06:09:44.103Z,4.10
2017-09-06T06:12:11.659Z,4.70
2017-09-06T06:14:39.180Z,3.80
2017-09-06T06:17:06.703Z,3.73
2017-09-06T06:19:34.245Z,3.60
2017-09-06T06:22:01.771Z,3.70
2017-09-06T06:24:29.314Z,3.63
2017-09-06T06:26:56.839Z,3.67
2017-09-06T06:29:24.415Z,3.40
2017-09-06T06:31:51.933Z,4.40
2017-09-06T06:34:19.483Z,4.10
2017-09-06T06:36:46.994Z,3.50
2017-09-06T06:39:14.537Z,3.40
2017-09-06T06:41:42.059Z,3.73
2017-09-06T06:44:09.603Z,3.57
2017-09-06T06:46:37.121Z,3.20
2017-09-06T06:49:04.666Z,3.07
2017-09-06T06:51:32.190Z,2.87
2017-09-06T06:53:59.742Z,2.80
2017-09-06T06:56:27.274Z,3.33
2017-09-06T06:58:54.827Z,3.33
2017-09-06T07:01:22.346Z,3.10
2017-09-06T07:03:49.895Z,3.00
2017-09-06T07:06:17.416Z,3.27
2017-09-06T07:08:44.974Z,3.50
2017-09-06T07:11:12.496Z,2.70
2017-09-06T07:13:40.044Z,3.23
2017-09-06T07:16:07.562Z,3.03
2017-09-06T07:18:35.086Z,2.93
2017-09-06T07:21:02.636Z,3.33
2017-09-06T07:23:30.158Z,3.30
2017-09-06T07:25:57.710Z,2.90
2017-09-06T07:28:25.239Z,2.80
2017-09-06T07:30:52.778Z,3.30
2017-09-06T07:33:20.302Z,3.67
2017-09-06T07:35:47.847Z,2.90
2017-09-06T07:38:15.370Z,2.80
2017-09-06T07:40:42.911Z,2.50
2017-09-06T07:43:10.434Z,2.87
2017-09-06T07:45:37.986Z,2.80
2017-09-06T07:48:05.520Z,3.20
2017-09-06T07:50:33.070Z,3.60
2017-09-06T07:53:00.595Z,3.53
2017-09-06T07:55:28.142Z,3.90
2017-09-06T07:57:55.666Z,2.90
2017-09-06T08:00:23.214Z,2.83
2017-09-06T08:02:50.743Z,2.87
2017-09-06T08:05:18.266Z,3.00
2017-09-06T08:07:51.582Z,3.30
2017-09-06T08:10:19.108Z,2.80
2017-09-06T08:12:46.658Z,3.03
2017-09-06T08:15:14.195Z,3.37
2017-09-06T08:17:41.742Z,2.80
2017-09-06T08:20:09.264Z,3.10
2017-09-06T08:22:36.814Z,3.03
2017-09-06T08:25:04.337Z,3.27
2017-09-06T08:27:31.890Z,2.63
2017-09-06T08:29:59.419Z,3.20
2017-09-06T08:32:26.967Z,2.50
2017-09-06T08:34:54.503Z,2.70
2017-09-06T08:37:22.051Z,2.73
2017-09-06T08:39:49.583Z,3.10
2017-09-06T08:42:17.126Z,2.67
2017-09-06T08:44:44.646Z,2.80
2017-09-06T08:47:12.192Z,3.10
2017-09-06T08:49:39.719Z,2.80
2017-09-06T08:52:07.276Z,2.80
2017-09-06T08:54:34.803Z,2.47
2017-09-06T08:57:02.350Z,2.77
2017-09-06T08:59:29.879Z,3.53
2017-09-06T09:01:57.403Z,2.93
2017-09-06T09:04:24.950Z,3.30
2017-09-06T09:06:52.477Z,2.67
2017-09-06T09:09:20.022Z,2.20
2017-09-06T09:11:47.579Z,2.30
2017-09-06T09:14:15.111Z,2.50
2017-09-06T09:16:42.636Z,2.30
2017-09-06T09:19:10.178Z,2.20
2017-09-06T09:21:37.703Z,2.50
2017-09-06T09:24:05.260Z,2.43
2017-09-06T09:26:32.782Z,2.10
2017-09-06T09:29:00.328Z,2.63
2017-09-06T09:31:27.848Z,2.13
2017-09-06T09:33:55.394Z,3.03
2017-09-06T09:36:22.920Z,3.27
2017-09-06T09:38:50.470Z,2.33
2017-09-06T09:41:17.995Z,2.60
2017-09-06T09:43:45.553Z,3.23
2017-09-06T09:46:13.075Z,2.60
2017-09-06T09:48:40.623Z,2.90
2017-09-06T09:51:08.151Z,2.77
2017-09-06T09:53:35.732Z,3.03
2017-09-06T09:56:03.255Z,2.67
2017-09-06T09:58:30.775Z,2.40
2017-09-06T10:00:58.318Z,2.80
2017-09-06T10:03:25.853Z,2.20
2017-09-06T10:05:53.395Z,2.70
2017-09-06T10:08:20.919Z,2.37
2017-09-06T10:10:48.472Z,2.67
2017-09-06T10:13:16.000Z,2.80
2017-09-06T10:15:44.543Z,2.37
2017-09-06T10:18:12.083Z,2.50
2017-09-06T10:20:39.626Z,2.80
2017-09-06T10:23:07.150Z,3.00
2017-09-06T10:25:34.695Z,2.57
2017-09-06T10:28:02.221Z,2.20
2017-09-06T10:30:29.775Z,2.43
2017-09-06T10:32:57.303Z,2.60
2017-09-06T10:35:24.855Z,3.20
2017-09-06T10:37:52.378Z,3.00
2017-09-06T10:40:19.926Z,2.83
2017-09-06T10:42:47.449Z,3.27
2017-09-06T10:45:14.994Z,2.70
2017-09-06T10:47:42.518Z,3.20
2017-09-06T10:50:10.078Z,2.83
2017-09-06T10:52:37.598Z,2.70
2017-09-06T10:55:05.123Z,2.77
2017-09-06T10:57:32.676Z,3.20
2017-09-06T11:00:00.215Z,3.20
2017-09-06T11:02:27.766Z,3.43
2017-09-06T11:04:55.282Z,2.73
2017-09-06T11:07:22.831Z,2.80
2017-09-06T11:09:50.351Z,2.80
2017-09-06T11:12:17.904Z,2.73
2017-09-06T11:14:45.454Z,2.83
2017-09-06T11:17:12.999Z,3.13
2017-09-06T11:19:40.524Z,3.43
2017-09-06T11:22:08.078Z,3.10
2017-09-06T11:24:35.606Z,3.30
2017-09-06T11:27:03.159Z,3.63
2017-09-06T11:29:30.682Z,3.47
2017-09-06T11:31:58.237Z,3.10
2017-09-06T11:34:25.763Z,3.10
2017-09-06T11:36:53.312Z,2.50
2017-09-06T11:39:20.844Z,2.97
2017-09-06T11:41:48.418Z,3.33
2017-09-06T11:44:15.944Z,3.30
2017-09-06T11:46:43.561Z,2.83
2017-09-06T11:49:11.086Z,3.33
2017-09-06T11:51:38.613Z,2.67
2017-09-06T11:54:06.174Z,3.17
2017-09-06T11:56:33.699Z,3.57
2017-09-06T11:59:01.296Z,3.20
2017-09-06T12:01:28.819Z,2.80
2017-09-06T12:03:56.367Z,3.03
2017-09-06T12:06:23.893Z,2.90
2017-09-06T12:08:51.438Z,3.40
2017-09-06T12:11:18.966Z,3.70
2017-09-06T12:13:46.516Z,3.63
2017-09-06T12:16:14.060Z,3.33
2017-09-06T12:18:41.613Z,2.77
2017-09-06T12:21:09.133Z,3.20
2017-09-06T12:23:36.683Z,3.17
2017-09-06T12:26:04.210Z,3.17
2017-09-06T12:28:31.767Z,3.60
2017-09-06T12:30:59.291Z,2.47
2017-09-06T12:33:26.839Z,3.07
2017-09-06T12:35:54.363Z,2.90
2017-09-06T12:38:21.914Z,3.50
2017-09-06T12:40:49.443Z,2.87
2017-09-06T12:43:16.989Z,4.30
2017-09-06T12:45:44.508Z,2.83
2017-09-06T12:48:12.037Z,3.50
2017-09-06T12:50:39.586Z,3.10
2017-09-06T12:53:07.108Z,3.03
2017-09-06T12:55:34.660Z,2.97
2017-09-06T12:58:02.182Z,2.90
2017-09-06T13:00:30.498Z,3.13
2017-09-06T13:02:58.018Z,3.87
2017-09-06T13:05:25.570Z,3.20
2017-09-06T13:07:53.102Z,3.20
2017-09-06T13:10:20.652Z,2.70
2017-09-06T13:12:48.174Z,2.63
2017-09-06T13:15:15.717Z,3.23
2017-09-06T13:17:43.239Z,3.10
2017-09-06T13:20:10.786Z,2.73
2017-09-06T13:22:38.310Z,2.97
2017-09-06T13:25:05.863Z,3.00
2017-09-06T13:27:33.391Z,3.37
2017-09-06T13:30:00.938Z,2.70
2017-09-06T13:32:28.451Z,3.17
2017-09-06T13:34:56.003Z,2.80
2017-09-06T13:37:23.530Z,3.50
2017-09-06T13:39:51.091Z,3.33
2017-09-06T13:42:18.623Z,3.37
2017-09-06T13:44:46.208Z,3.50
2017-09-06T13:47:13.743Z,3.40
2017-09-06T13:49:41.267Z,2.80
2017-09-06T13:52:08.815Z,3.40
2017-09-06T13:54:36.342Z,3.03
2017-09-06T13:57:03.882Z,3.50
2017-09-06T13:59:31.407Z,3.93
2017-09-06T14:01:58.956Z,4.10
2017-09-06T14:04:26.511Z,3.10
2017-09-06T14:06:54.057Z,3.13
2017-09-06T14:09:21.582Z,3.57
2017-09-06T14:11:49.139Z,3.63
2017-09-06T14:14:16.666Z,3.50
2017-09-06T14:16:44.214Z,3.43
2017-09-06T14:19:11.747Z,3.23
2017-09-06T14:21:39.291Z,3.10
2017-09-06T14:24:06.821Z,3.27
2017-09-06T14:26:34.367Z,2.80
2017-09-06T14:29:01.882Z,3.60
2017-09-06T14:31:29.427Z,4.23
2017-09-06T14:33:56.950Z,2.90
2017-09-06T14:36:24.504Z,2.93
2017-09-06T14:38:52.037Z,3.30
2017-09-06T14:41:19.607Z,3.43
2017-09-06T14:43:47.134Z,3.07
2017-09-06T14:46:14.664Z,2.50
2017-09-06T14:48:42.223Z,3.40
2017-09-06T14:51:09.750Z,3.10
2017-09-06T14:53:37.306Z,3.40
2017-09-06T14:56:04.826Z,3.63
2017-09-06T14:58:32.379Z,3.50
2017-09-06T15:00:59.908Z,3.23
2017-09-06T15:03:27.458Z,3.60
2017-09-06T15:05:54.979Z,3.07
2017-09-06T15:08:22.542Z,3.47
2017-09-06T15:10:50.071Z,3.07
2017-09-06T15:13:17.618Z,2.60
2017-09-06T15:15:45.136Z,3.70
2017-09-06T15:18:12.682Z,3.83
2017-09-06T15:20:40.216Z,3.43
2017-09-06T15:23:07.814Z,3.43
2017-09-06T15:25:35.349Z,3.23
2017-09-06T15:28:02.907Z,3.67
2017-09-06T15:30:30.430Z,3.40
2017-09-06T15:32:57.973Z,3.40
2017-09-06T15:35:25.496Z,4.13
2017-09-06T15:37:53.053Z,3.47
2017-09-06T15:40:20.579Z,3.80
2017-09-06T15:42:48.106Z,3.53
2017-09-06T15:45:15.654Z,3.63
2017-09-06T15:47:43.179Z,3.10
2017-09-06T15:50:10.745Z,3.80
2017-09-06T15:52:38.276Z,3.30
2017-09-06T15:55:05.834Z,4.90
2017-09-06T15:57:33.353Z,3.90
2017-09-06T16:00:00.919Z,4.50
2017-09-06T16:02:28.447Z,3.90
2017-09-06T16:04:56.017Z,4.10
2017-09-06T16:07:23.546Z,4.20
2017-09-06T16:09:51.107Z,4.10
2017-09-06T16:12:18.702Z,3.97
2017-09-06T16:14:46.332Z,4.40
2017-09-06T16:17:13.862Z,3.30
2017-09-06T16:19:41.413Z,4.90
2017-09-06T16:22:08.948Z,4.53
2017-09-06T16:24:36.497Z,3.47
2017-09-06T16:27:04.018Z,4.73
2017-09-06T16:29:31.570Z,4.47
2017-09-06T16:31:59.096Z,3.53
2017-09-06T16:34:26.654Z,5.13
2017-09-06T16:36:54.179Z,5.10
2017-09-06T16:39:21.717Z,3.63
2017-09-06T16:41:49.283Z,5.73
2017-09-06T16:44:16.802Z,4.80
2017-09-06T16:46:44.360Z,3.80
2017-09-06T16:49:11.887Z,5.50
2017-09-06T16:51:39.438Z,5.20
2017-09-06T16:54:06.974Z,3.60
2017-09-06T16:56:34.531Z,5.10
2017-09-06T16:59:02.060Z,4.90
2017-09-06T17:01:29.618Z,4.53
2017-09-06T17:03:57.150Z,5.57
2017-09-06T17:06:24.710Z,4.10
2017-09-06T17:08:52.238Z,4.23
2017-09-06T17:11:19.791Z,5.30
2017-09-06T17:13:47.315Z,4.90
2017-09-06T17:16:14.871Z,4.10
2017-09-06T17:18:42.411Z,5.40
2017-09-06T17:21:10.015Z,5.03
2017-09-06T17:23:37.523Z,4.20
2017-09-06T17:26:05.075Z,5.50
2017-09-06T17:28:32.599Z,3.60
2017-09-06T17:31:00.168Z,4.40
2017-09-06T17:33:27.699Z,5.20
2017-09-06T17:36:15.002Z,4.20
2017-09-06T17:38:42.550Z,5.40
2017-09-06T17:41:10.082Z,3.60
2017-09-06T17:43:37.691Z,5.47
2017-09-06T17:46:05.231Z,5.20
2017-09-06T17:48:32.782Z,3.97
2017-09-06T17:51:00.327Z,6.13
2017-09-06T17:53:27.879Z,4.37
2017-09-06T17:55:55.444Z,3.90
2017-09-06T17:58:23.352Z,5.80
2017-09-06T18:00:50.878Z,3.73
2017-09-06T18:03:18.445Z,4.00
2017-09-06T18:05:46.514Z,6.60
2017-09-06T18:08:14.233Z,4.30
2017-09-06T18:10:41.762Z,4.00
2017-09-06T18:13:09.322Z,5.30
2017-09-06T18:15:36.863Z,4.10
2017-09-06T18:18:04.420Z,4.27
2017-09-06T18:20:31.954Z,4.90
2017-09-06T18:22:59.510Z,5.20
2017-09-06T18:25:27.037Z,4.43
2017-09-06T18:27:54.595Z,5.07
2017-09-06T18:30:22.126Z,4.60
2017-09-06T18:32:49.674Z,4.90
2017-09-06T18:35:17.498Z,7.10
2017-09-06T18:37:46.344Z,4.23
2017-09-06T18:40:14.027Z,5.07
2017-09-06T18:42:42.039Z,5.37
2017-09-06T18:45:09.867Z,4.43
2017-09-06T18:47:37.407Z,5.70
2017-09-06T18:50:04.969Z,5.37
2017-09-06T18:52:32.519Z,4.60
2017-09-06T18:55:00.077Z,5.20
2017-09-06T18:57:27.606Z,4.50
2017-09-06T18:59:55.158Z,4.27
2017-09-06T19:02:22.683Z,5.17
2017-09-06T19:04:50.236Z,4.40
2017-09-06T19:07:17.783Z,4.73
2017-09-06T19:09:45.417Z,5.33
2017-09-06T19:12:13.493Z,5.07
2017-09-06T19:14:41.306Z,4.70
2017-09-06T19:17:08.842Z,6.47
2017-09-06T19:19:36.412Z,4.27
2017-09-06T19:22:03.950Z,4.90
2017-09-06T19:24:31.510Z,5.60
2017-09-06T19:26:59.048Z,4.20
2017-09-06T19:29:26.614Z,4.20
2017-09-06T19:31:54.155Z,5.43
2017-09-06T19:34:21.683Z,4.90
2017-09-06T19:36:49.236Z,4.93
2017-09-06T19:39:16.767Z,6.00
2017-09-06T19:41:44.325Z,4.27
2017-09-06T19:44:11.854Z,5.40
2017-09-06T19:46:39.415Z,6.33
2017-09-06T19:49:06.944Z,5.20
2017-09-06T19:51:34.504Z,5.40
2017-09-06T19:54:02.030Z,5.90
2017-09-06T19:56:29.586Z,6.00
2017-09-06T19:58:57.110Z,6.10
2017-09-06T20:01:24.663Z,7.77
2017-09-06T20:03:58.857Z,5.00
2017-09-06T20:06:26.414Z,6.20
2017-09-06T20:08:53.944Z,5.60
2017-09-06T20:11:21.509Z,5.77
2017-09-06T20:13:49.052Z,5.87
2017-09-06T20:16:16.610Z,5.53
2017-09-06T20:18:44.140Z,5.67
2017-09-06T20:21:11.699Z,6.57
2017-09-06T20:23:39.230Z,5.50
2017-09-06T20:26:06.792Z,5.67
2017-09-06T20:28:34.327Z,6.53
2017-09-06T20:31:01.898Z,5.00
2017-09-06T20:33:29.427Z,5.90
2017-09-06T20:35:56.957Z,6.83
2017-09-06T20:38:24.518Z,4.80
2017-09-06T20:40:52.046Z,6.00
2017-09-06T20:43:19.607Z,6.53
2017-09-06T20:45:47.142Z,5.43
2017-09-06T20:48:14.703Z,6.43
2017-09-06T20:50:42.251Z,5.90
2017-09-06T20:53:09.810Z,5.97
2017-09-06T20:55:37.343Z,5.43
2017-09-06T20:58:04.924Z,5.73
2017-09-06T21:00:32.451Z,4.40
2017-09-06T21:03:00.011Z,7.57
2017-09-06T21:05:27.553Z,6.80
2017-09-06T21:07:55.113Z,5.10
2017-09-06T21:10:22.652Z,5.67
2017-09-06T21:12:50.208Z,6.30
2017-09-06T21:15:17.743Z,5.73
2017-09-06T21:17:45.306Z,5.43
2017-09-06T21:20:12.839Z,5.13
2017-09-06T21:22:40.394Z,5.30
2017-09-06T21:25:07.917Z,5.53
2017-09-06T21:27:35.456Z,6.07
2017-09-06T21:30:03.008Z,6.10
2017-09-06T21:32:30.547Z,5.60
2017-09-06T21:34:58.108Z,5.73
2017-09-06T21:37:25.635Z,5.33
2017-09-06T21:39:53.196Z,5.37
2017-09-06T21:42:20.730Z,5.10
2017-09-06T21:44:48.284Z,5.60
2017-09-06T21:47:15.814Z,5.63
2017-09-06T21:49:43.372Z,5.90
2017-09-06T21:52:10.904Z,5.80
2017-09-06T21:54:38.460Z,4.83
2017-09-06T21:57:05.988Z,5.27
2017-09-06T21:59:33.555Z,4.63
2017-09-06T22:02:01.093Z,6.17
2017-09-06T22:04:28.650Z,5.20
2017-09-06T22:06:56.185Z,6.37
2017-09-06T22:09:23.743Z,5.83
2017-09-06T22:11:51.272Z,4.60
2017-09-06T22:14:18.830Z,4.97
2017-09-06T22:16:46.360Z,4.73
2017-09-06T22:19:13.924Z,5.60
2017-09-06T22:21:41.451Z,5.73
2017-09-06T22:24:09.028Z,5.90
2017-09-06T22:26:36.568Z,5.43
2017-09-06T22:29:04.099Z,4.90
2017-09-06T22:52:07.425Z,6.40
2017-09-06T22:54:34.960Z,5.17
2017-09-06T22:57:02.520Z,5.80
2017-09-06T22:59:30.057Z,5.40
2017-09-06T23:01:57.619Z,4.90
2017-09-06T23:04:25.911Z,5.47
2017-09-06T23:06:53.476Z,5.07
2017-09-06T23:09:21.004Z,6.07
2017-09-06T23:11:48.554Z,6.30
2017-09-06T23:14:16.082Z,5.37
2017-09-06T23:16:43.635Z,6.20
2017-09-06T23:19:11.167Z,5.70
2017-09-06T23:21:38.718Z,5.30
2017-09-06T23:24:06.254Z,5.80
2017-09-06T23:26:33.811Z,4.90
2017-09-06T23:29:01.343Z,5.50
2017-09-06T23:31:28.899Z,5.73
2017-09-06T23:33:56.423Z,6.27
2017-09-06T23:36:23.979Z,5.73
2017-09-06T23:38:51.519Z,5.73
2017-09-06T23:41:19.846Z,5.10
2017-09-06T23:43:47.402Z,6.80
2017-09-06T23:46:14.927Z,5.90
2017-09-06T23:48:43.244Z,6.47
2017-09-06T23:51:10.783Z,5.50
2017-09-06T23:53:38.334Z,5.90
2017-09-06T23:56:05.867Z,6.23
2017-09-06T23:58:33.431Z,5.50
